Sherwood, Oregon
Current Conditions -  °F | °C
As of 7:53 PM on Saturday 25 Oct 2014 (Local Time) from KUAO Reporting Station
Light Rain Light Rain  
Wind Chill: 53°   Ceiling: 6000
Heat Index: 53°   Visibility: 10mi
Dew Point: 50°   Wind: 12mph
Humidity: 89%   Direction: 190°S
Pressure: 29.81"   Gusts: NA
Location:  45.36°N, 122.84°W
Report Text: KUAO 260253Z AUTO 19010KT 10SM -RA BKN060 OVC080 12/10 A2981 RMK AO2 RAB15 SLP094 P0004 60011 T01170100 51105 $
Loading
Personal Weather Stations






























Interactive Weather Map
Tropical Storm Tracking
New forecast layout! Learn more

10-Day Weather Forecast

Advertisements
Track Severe Weather on mobile